| time (UTC) | temp C | wind direction | speed KPH | gust KPH | rain 1hr cm | rain 24hr cm | rain mn cm | humidity % | barometer mb |
| 20260507155534 | 16 | 291 | 3.2 | 3.2 | 0.00 | 0.48 | 0.48 | 57 | 1006.6 |
| 20260507155031 | 16 | 31 | 3.2 | 8.0 | 0.00 | 0.48 | 0.48 | 61 | 1006.6 |
| 20260507154528 | 15 | 354 | 3.2 | 3.2 | 0.00 | 0.48 | 0.48 | 62 | 1006.6 |
| 20260507154026 | 15 | 294 | 3.2 | 3.2 | 0.00 | 0.48 | 0.48 | 61 | 1006.7 |
| 20260507153522 | 15 | 26 | 0.0 | 0.0 | 0.00 | 0.48 | 0.48 | 67 | 1006.7 |
| 20260507153018 | 15 | 2 | 4.8 | 4.8 | 0.00 | 0.48 | 0.48 | 64 | 1006.9 |
| 20260507152514 | 15 | 314 | 4.8 | 4.8 | 0.00 | 0.48 | 0.48 | 65 | 1007.0 |
| 20260507152011 | 15 | 321 | 1.6 | 1.6 | 0.00 | 0.48 | 0.48 | 63 | 1007.0 |
| 20260507151507 | 14 | 307 | 3.2 | 3.2 | 0.00 | 0.48 | 0.48 | 67 | 1006.9 |
| 20260507151004 | 15 | 44 | 3.2 | 4.8 | 0.00 | 0.48 | 0.48 | 65 | 1006.9 |
| 20260507150501 | 14 | 314 | 3.2 | 3.2 | 0.00 | 0.48 | 0.48 | 63 | 1007.1 |
| 20260507145957 | 13 | 4 | 3.2 | 3.2 | 0.00 | 0.48 | 0.48 | 68 | 1007.2 |
| 20260507145453 | 15 | 315 | 8.0 | 11.3 | 0.00 | 0.48 | 0.48 | 64 | 1007.3 |
| 20260507144950 | 14 | 278 | 1.6 | 1.6 | 0.00 | 0.48 | 0.48 | 71 | 1007.0 |
| 20260507144447 | 14 | 293 | 3.2 | 3.2 | 0.00 | 0.48 | 0.48 | 69 | 1007.4 |
| 20260507143944 | 13 | 298 | 11.3 | 12.9 | 0.00 | 0.48 | 0.48 | 66 | 1007.2 |
| 20260507143442 | 13 | 288 | 1.6 | 1.6 | 0.00 | 0.48 | 0.48 | 70 | 1007.4 |
| 20260507142938 | 13 | 331 | 6.4 | 8.0 | 0.00 | 0.48 | 0.48 | 66 | 1007.3 |
| 20260507142434 | 13 | 313 | 3.2 | 8.0 | 0.00 | 0.48 | 0.48 | 71 | 1007.5 |
| 20260507141931 | 13 | 35 | 3.2 | 4.8 | 0.00 | 0.48 | 0.48 | 70 | 1007.5 |
| 20260507141427 | 13 | 312 | 1.6 | 3.2 | 0.00 | 0.48 | 0.48 | 75 | 1007.2 |
| 20260507140924 | 13 | 294 | 3.2 | 4.8 | 0.00 | 0.48 | 0.48 | 74 | 1007.5 |
| 20260507140420 | 13 | 281 | 4.8 | 8.0 | 0.00 | 0.48 | 0.48 | 74 | 1007.5 |
| 20260507135919 | 13 | 357 | 1.6 | 3.2 | 0.00 | 0.48 | 0.48 | 75 | 1007.7 |
| 20260507135414 | 12 | 330 | 1.6 | 1.6 | 0.00 | 0.48 | 0.48 | 77 | 1007.5 |
| 20260507134912 | 13 | 29 | 1.6 | 1.6 | 0.00 | 0.48 | 0.48 | 74 | 1007.7 |
| 20260507134408 | 12 | 325 | 0.0 | 1.6 | 0.00 | 0.48 | 0.48 | 78 | 1008.1 |
| 20260507133904 | 12 | 328 | 4.8 | 8.0 | 0.00 | 0.48 | 0.48 | 79 | 1007.9 |
| 20260507133400 | 12 | 345 | 4.8 | 8.0 | 0.00 | 0.48 | 0.48 | 76 | 1007.9 |
| 20260507132859 | 12 | 348 | 4.8 | 4.8 | 0.00 | 0.48 | 0.48 | 82 | 1008.1 |
| 20260507132355 | 12 | 357 | 1.6 | 3.2 | 0.00 | 0.48 | 0.48 | 84 | 1008.0 |
| 20260507131852 | 11 | 310 | 8.0 | 11.3 | 0.00 | 0.48 | 0.48 | 81 | 1008.0 |
| 20260507131349 | 11 | 351 | 1.6 | 1.6 | 0.00 | 0.48 | 0.48 | 84 | 1007.8 |
| 20260507130846 | 11 | 336 | 3.2 | 3.2 | 0.00 | 0.48 | 0.48 | 83 | 1007.9 |
| 20260507130343 | 11 | 319 | 3.2 | 3.2 | 0.00 | 0.48 | 0.48 | 85 | 1007.7 |
| 20260507125842 | 11 | 312 | 1.6 | 3.2 | 0.00 | 0.48 | 0.48 | 87 | 1008.1 |
| 20260507125339 | 11 | 317 | 4.8 | 8.0 | 0.00 | 0.48 | 0.48 | 86 | 1007.8 |
| 20260507124836 | 10 | 328 | 1.6 | 3.2 | 0.00 | 0.48 | 0.48 | 89 | 1007.6 |
| 20260507124332 | 10 | 349 | 0.0 | 0.0 | 0.00 | 0.48 | 0.48 | 92 | 1007.6 |
| 20260507123831 | 10 | 0 | 0.0 | 0.0 | 0.00 | 0.48 | 0.48 | 96 | 1007.7 |
| 20260507123328 | 8 | 305 | 1.6 | 3.2 | 0.00 | 0.48 | 0.48 | 96 | 1007.5 |
| 20260507122824 | 8 | 355 | 0.0 | 0.0 | 0.00 | 0.48 | 0.48 | 96 | 1007.5 |
| 20260507122319 | 8 | 316 | 3.2 | 4.8 | 0.00 | 0.48 | 0.48 | 97 | 1007.6 |
| 20260507121816 | 8 | 332 | 4.8 | 4.8 | 0.00 | 0.48 | 0.48 | 97 | 1007.6 |
| 20260507121312 | 8 | 302 | 3.2 | 3.2 | 0.00 | 0.48 | 0.48 | 98 | 1007.8 |
| 20260507120808 | 8 | 350 | 1.6 | 3.2 | 0.00 | 0.48 | 0.48 | 99 | 1007.4 |
| 20260507120305 | 8 | 7 | 3.2 | 4.8 | 0.00 | 0.48 | 0.48 | 99 | 1008.2 |
| 20260507115801 | 8 | 300 | 6.4 | 8.0 | 0.00 | 0.48 | 0.48 | 99 | 1008.3 |
| 20260507115257 | 8 | 319 | 4.8 | 8.0 | 0.00 | 0.48 | 0.48 | 99 | 1008.0 |
| 20260507114753 | 8 | 284 | 0.0 | 0.0 | 0.00 | 0.48 | 0.48 | 99 | 1007.9 |
| 20260507114250 | 7 | 333 | 3.2 | 3.2 | 0.00 | 0.48 | 0.48 | 99 | 1008.5 |
| 20260507113748 | 7 | 319 | 0.0 | 0.0 | 0.00 | 0.48 | 0.48 | 99 | 1008.6 |
| 20260507113244 | 7 | 338 | 0.0 | 0.0 | 0.00 | 0.48 | 0.48 | 99 | 1008.4 |
| 20260507112742 | 7 | 356 | 0.0 | 0.0 | 0.00 | 0.48 | 0.48 | 99 | 1008.3 |
| 20260507112238 | 7 | 333 | 0.0 | 0.0 | 0.00 | 0.48 | 0.48 | 99 | 1008.8 |
| 20260507111737 | 7 | 299 | 3.2 | 3.2 | 0.00 | 0.48 | 0.48 | 99 | 1008.8 |
| 20260507111233 | 7 | 346 | 0.0 | 0.0 | 0.00 | 0.48 | 0.48 | 99 | 1007.8 |
| 20260507110729 | 7 | 328 | 4.8 | 4.8 | 0.00 | 0.48 | 0.48 | 99 | 1008.4 |
| 20260507110226 | 7 | 317 | 0.0 | 0.0 | 0.00 | 0.48 | 0.48 | 99 | 1008.1 |
| 20260507105722 | 7 | 321 | 0.0 | 0.0 | 0.00 | 0.48 | 0.48 | 99 | 1008.5 |
| 20260507105218 | 7 | 316 | 0.0 | 0.0 | 0.00 | 0.48 | 0.48 | 99 | 1008.2 |
| 20260507104716 | 7 | 330 | 0.0 | 0.0 | 0.00 | 0.48 | 0.48 | 99 | 1007.7 |
| 20260507104212 | 7 | 33 | 0.0 | 0.0 | 0.00 | 0.48 | 0.48 | 99 | 1007.7 |
| 20260507103708 | 7 | 328 | 0.0 | 0.0 | 0.00 | 0.48 | 0.48 | 99 | 1007.7 |
| 20260507103205 | 7 | 342 | 0.0 | 0.0 | 0.00 | 0.48 | 0.48 | 99 | 1007.7 |
| 20260507102701 | 7 | 349 | 1.6 | 1.6 | 0.00 | 0.48 | 0.48 | 99 | 1007.6 |
| 20260507102158 | 7 | 340 | 0.0 | 0.0 | 0.00 | 0.48 | 0.48 | 99 | 1007.3 |
| 20260507101654 | 7 | 347 | 0.0 | 0.0 | 0.00 | 0.48 | 0.48 | 99 | 1007.2 |
| 20260507101149 | 7 | 337 | 4.8 | 8.0 | 0.00 | 0.48 | 0.48 | 99 | 1007.1 |
| 20260507100647 | 7 | 304 | 1.6 | 3.2 | 0.00 | 0.48 | 0.48 | 99 | 1007.3 |
| 20260507100145 | 7 | 332 | 1.6 | 1.6 | 0.00 | 0.48 | 0.48 | 99 | 1007.4 |
| 20260507095643 | 7 | 324 | 0.0 | 0.0 | 0.00 | 0.48 | 0.48 | 99 | 1007.2 |
| 20260507095139 | 7 | 335 | 3.2 | 3.2 | 0.00 | 0.48 | 0.48 | 99 | 1007.1 |
| 20260507094636 | 7 | 324 | 0.0 | 0.0 | 0.00 | 0.48 | 0.48 | 99 | 1006.8 |
| 20260507094132 | 7 | 343 | 0.0 | 0.0 | 0.00 | 0.48 | 0.48 | 99 | 1006.7 |
| 20260507093630 | 7 | 345 | 0.0 | 0.0 | 0.00 | 0.48 | 0.48 | 99 | 1007.2 |
| 20260507093129 | 7 | 17 | 0.0 | 0.0 | 0.00 | 0.48 | 0.48 | 99 | 1007.5 |
| 20260507092625 | 7 | 330 | 1.6 | 3.2 | 0.00 | 0.48 | 0.48 | 99 | 1007.6 |
| 20260507092121 | 7 | 314 | 3.2 | 3.2 | 0.00 | 0.48 | 0.48 | 99 | 1007.3 |
| 20260507091618 | 7 | 334 | 3.2 | 8.0 | 0.00 | 0.48 | 0.48 | 99 | 1007.4 |
| 20260507091114 | 8 | 281 | 6.4 | 9.7 | 0.00 | 0.48 | 0.48 | 99 | 1007.5 |
| 20260507090610 | 8 | 317 | 0.0 | 0.0 | 0.00 | 0.48 | 0.48 | 99 | 1007.3 |
| 20260507090107 | 8 | 300 | 6.4 | 11.3 | 0.00 | 0.48 | 0.48 | 99 | 1007.5 |
| 20260507085604 | 8 | 322 | 4.8 | 8.0 | 0.00 | 0.48 | 0.48 | 99 | 1007.0 |
| 20260507085101 | 8 | 330 | 0.0 | 0.0 | 0.00 | 0.48 | 0.48 | 99 | 1006.5 |
| 20260507084558 | 8 | 335 | 0.0 | 0.0 | 0.00 | 0.48 | 0.48 | 99 | 1006.6 |
| 20260507084055 | 8 | 333 | 0.0 | 0.0 | 0.00 | 0.48 | 0.48 | 99 | 1006.4 |
| 20260507083551 | 8 | 344 | 0.0 | 0.0 | 0.00 | 0.48 | 0.48 | 99 | 1006.5 |
| 20260507083048 | 8 | 338 | 3.2 | 3.2 | 0.00 | 0.48 | 0.48 | 99 | 1006.6 |
| 20260507082544 | 8 | 309 | 0.0 | 0.0 | 0.00 | 0.48 | 0.48 | 99 | 1006.6 |
| 20260507082041 | 8 | 332 | 0.0 | 0.0 | 0.00 | 0.48 | 0.48 | 99 | 1006.9 |
| 20260507081537 | 8 | 336 | 0.0 | 0.0 | 0.00 | 0.48 | 0.48 | 99 | 1006.7 |
| 20260507081034 | 8 | 335 | 0.0 | 1.6 | 0.00 | 0.48 | 0.48 | 99 | 1006.7 |
| 20260507080530 | 8 | 353 | 0.0 | 1.6 | 0.00 | 0.48 | 0.48 | 99 | 1006.7 |
| 20260507080026 | 8 | 351 | 0.0 | 0.0 | 0.00 | 0.48 | 0.48 | 99 | 1006.6 |
| 20260507075522 | 9 | 15 | 1.6 | 3.2 | 0.00 | 0.48 | 0.48 | 99 | 1006.3 |
| 20260507075018 | 9 | 342 | 0.0 | 0.0 | 0.00 | 0.48 | 0.48 | 99 | 1006.3 |
| 20260507074515 | 9 | 335 | 0.0 | 0.0 | 0.00 | 0.48 | 0.48 | 99 | 1006.6 |
| 20260507074014 | 9 | 297 | 6.4 | 8.0 | 0.00 | 0.48 | 0.48 | 99 | 1006.2 |
| 20260507073509 | 9 | 337 | 0.0 | 0.0 | 0.00 | 0.48 | 0.48 | 99 | 1006.3 |
| 20260507073006 | 10 | 347 | 0.0 | 0.0 | 0.13 | 0.48 | 0.48 | 99 | 1006.3 |
| 20260507072504 | 10 | 337 | 0.0 | 0.0 | 0.13 | 0.48 | 0.48 | 99 | 1006.5 |
| 20260507072001 | 10 | 305 | 0.0 | 0.0 | 0.00 | 0.46 | 0.46 | 99 | 1006.3 |
| 20260507071458 | 10 | 345 | 0.0 | 0.0 | 0.00 | 0.46 | 0.46 | 99 | 1006.2 |
| 20260507070954 | 10 | 305 | 0.0 | 0.0 | 0.18 | 0.46 | 0.46 | 99 | 1006.1 |
| 20260507070451 | 10 | 354 | 0.0 | 0.0 | 0.18 | 0.46 | 0.46 | 99 | 1006.0 |
| 20260507065948 | 10 | 300 | 4.8 | 4.8 | 0.00 | 0.43 | 0.43 | 99 | 1006.3 |
| 20260507065445 | 10 | 323 | 1.6 | 3.2 | 0.00 | 0.43 | 0.43 | 99 | 1006.2 |
| 20260507064942 | 10 | 302 | 8.0 | 11.3 | 0.00 | 0.43 | 0.43 | 99 | 1006.0 |
| 20260507064440 | 10 | 313 | 0.0 | 0.0 | 0.00 | 0.43 | 0.43 | 99 | 1005.9 |
| 20260507063938 | 10 | 305 | 4.8 | 4.8 | 0.00 | 0.43 | 0.43 | 99 | 1005.7 |
| 20260507063435 | 10 | 331 | 0.0 | 0.0 | 0.00 | 0.43 | 0.43 | 99 | 1005.8 |
| 20260507062932 | 10 | 256 | 0.0 | 0.0 | 0.13 | 0.43 | 0.43 | 99 | 1005.9 |
| 20260507062429 | 10 | 208 | 0.0 | 0.0 | 0.30 | 0.43 | 0.43 | 99 | 1005.6 |
| 20260507061926 | 10 | 261 | 0.0 | 0.0 | 0.61 | 0.43 | 0.43 | 99 | 1005.5 |
| 20260507061424 | 10 | 346 | 0.0 | 0.0 | 0.71 | 0.38 | 0.38 | 99 | 1005.6 |
| 20260507060923 | 10 | 335 | 0.0 | 0.0 | 0.79 | 0.33 | 0.33 | 99 | 1006.4 |
| 20260507060418 | 10 | 250 | 0.0 | 0.0 | 1.07 | 0.25 | 0.25 | 99 | 1007.1 |
| 20260507055915 | 10 | 268 | 3.2 | 4.8 | 1.02 | 0.20 | 0.20 | 99 | 1006.6 |
| 20260507055411 | 10 | 234 | 0.0 | 0.0 | 0.30 | 0.08 | 0.08 | 99 | 1006.3 |
| 20260507054908 | 10 | 296 | 1.6 | 1.6 | 0.00 | 0.03 | 0.03 | 99 | 1005.9 |
| 20260507054404 | 10 | 278 | 0.0 | 0.0 | 0.18 | 0.03 | 0.03 | 99 | 1005.9 |
| 20260507053901 | 10 | 354 | 0.0 | 1.6 | 0.18 | 0.03 | 0.03 | 99 | 1005.7 |
| 20260507053359 | 10 | 126 | 3.2 | 3.2 | 0.00 | 0.00 | 0.00 | 99 | 1005.6 |
| 20260507052858 | 10 | 294 | 0.0 | 0.0 | 0.00 | 0.00 | 0.00 | 99 | 1005.9 |
| 20260507052354 | 10 | 211 | 0.0 | 0.0 | 0.00 | 0.00 | 0.00 | 99 | 1005.9 |
| 20260507051851 | 10 | 221 | 0.0 | 0.0 | 0.00 | 0.00 | 0.00 | 99 | 1006.1 |
| 20260507051349 | 10 | 211 | 0.0 | 0.0 | 0.00 | 0.00 | 0.00 | 99 | 1006.1 |
| 20260507050845 | 10 | 196 | 3.2 | 3.2 | 0.00 | 0.00 | 0.00 | 99 | 1006.1 |
| 20260507050342 | 10 | 304 | 0.0 | 0.0 | 0.00 | 0.00 | 0.00 | 99 | 1006.1 |
| 20260507045839 | 10 | 289 | 0.0 | 0.0 | 0.00 | 0.00 | 0.00 | 99 | 1006.0 |
| 20260507045335 | 10 | 208 | 3.2 | 3.2 | 0.00 | 0.00 | 0.00 | 99 | 1006.2 |
| 20260507044833 | 10 | 197 | 0.0 | 0.0 | 0.00 | 0.00 | 0.00 | 99 | 1005.9 |
| 20260507044329 | 10 | 243 | 1.6 | 1.6 | 0.00 | 0.00 | 0.00 | 99 | 1005.8 |
| 20260507043825 | 10 | 139 | 4.8 | 4.8 | 0.00 | 0.00 | 0.00 | 99 | 1005.8 |
| 20260507043322 | 10 | 296 | 3.2 | 4.8 | 0.00 | 0.00 | 0.00 | 99 | 1006.0 |
| 20260507042818 | 10 | 214 | 1.6 | 3.2 | 0.00 | 0.00 | 0.00 | 99 | 1005.9 |
| 20260507042314 | 10 | 214 | 4.8 | 8.0 | 0.00 | 0.00 | 0.00 | 99 | 1006.3 |
| 20260507041811 | 10 | 175 | 8.0 | 9.7 | 0.00 | 0.00 | 0.00 | 99 | 1006.5 |
| 20260507041308 | 10 | 240 | 3.2 | 3.2 | 0.00 | 0.00 | 0.00 | 99 | 1006.4 |
| 20260507040805 | 10 | 323 | 9.7 | 12.9 | 0.00 | 0.00 | 0.00 | 99 | 1006.3 |
| 20260507040301 | 10 | 220 | 6.4 | 8.0 | 0.13 | 0.00 | 0.00 | 99 | 1006.3 |
| 20260507035757 | 10 | 187 | 8.0 | 9.7 | 0.13 | 2.24 | 2.24 | 99 | 1006.7 |
| 20260507035252 | 10 | 211 | 3.2 | 4.8 | 0.00 | 2.21 | 2.21 | 99 | 1006.6 |
| 20260507034750 | 10 | 202 | 0.0 | 3.2 | 0.00 | 2.21 | 2.21 | 99 | 1006.5 |
| 20260507034247 | 10 | 293 | 4.8 | 4.8 | 0.00 | 2.21 | 2.21 | 99 | 1006.6 |
| 20260507033745 | 10 | 169 | 12.9 | 14.5 | 0.00 | 2.21 | 2.21 | 99 | 1006.7 |
| 20260507033242 | 10 | 94 | 12.9 | 14.5 | 0.18 | 2.21 | 2.21 | 99 | 1006.9 |
| 20260507032739 | 10 | 139 | 4.8 | 8.0 | 0.18 | 2.21 | 2.21 | 99 | 1006.9 |
| 20260507032235 | 10 | 349 | 4.8 | 14.5 | 0.36 | 2.21 | 2.21 | 99 | 1007.1 |
| 20260507031732 | 10 | 225 | 8.0 | 9.7 | 0.48 | 2.18 | 2.18 | 99 | 1007.1 |
| 20260507031229 | 10 | 208 | 1.6 | 3.2 | 0.43 | 2.16 | 2.16 | 99 | 1007.0 |
| 20260507030726 | 11 | 202 | 0.0 | 4.8 | 0.43 | 2.11 | 2.11 | 99 | 1007.1 |
| 20260507030223 | 11 | 224 | 8.0 | 12.9 | 0.48 | 2.08 | 2.08 | 99 | 1007.2 |
| 20260507025720 | 11 | 276 | 8.0 | 11.3 | 0.48 | 2.03 | 2.03 | 99 | 1007.1 |
| 20260507025217 | 11 | 243 | 3.2 | 4.8 | 0.61 | 2.01 | 2.01 | 99 | 1007.1 |
| 20260507024716 | 11 | 208 | 12.9 | 16.1 | 0.61 | 1.96 | 1.96 | 99 | 1007.4 |
| 20260507024213 | 11 | 229 | 4.8 | 4.8 | 0.79 | 1.91 | 1.91 | 99 | 1007.4 |
| 20260507023708 | 11 | 238 | 0.0 | 0.0 | 0.79 | 1.85 | 1.85 | 99 | 1007.3 |
| 20260507023205 | 11 | 182 | 8.0 | 8.0 | 0.43 | 1.78 | 1.78 | 99 | 1007.3 |
| 20260507022702 | 11 | 171 | 9.7 | 14.5 | 0.61 | 1.73 | 1.73 | 99 | 1007.2 |
| 20260507022158 | 11 | 241 | 6.4 | 9.7 | 0.79 | 1.70 | 1.70 | 99 | 1007.3 |
| 20260507021654 | 11 | 199 | 8.0 | 9.7 | 0.61 | 1.63 | 1.63 | 99 | 1007.5 |
| 20260507021149 | 11 | 149 | 6.4 | 9.7 | 0.61 | 1.57 | 1.57 | 99 | 1007.8 |
| 20260507020649 | 11 | 229 | 4.8 | 8.0 | 0.61 | 1.50 | 1.50 | 99 | 1007.7 |
| 20260507020144 | 11 | 262 | 6.4 | 9.7 | 0.79 | 1.47 | 1.47 | 99 | 1007.8 |
| 20260507015643 | 11 | 154 | 6.4 | 9.7 | 0.61 | 1.40 | 1.40 | 99 | 1008.0 |
| 20260507015140 | 11 | 259 | 4.8 | 8.0 | 0.61 | 1.35 | 1.35 | 99 | 1008.3 |
| 20260507014636 | 11 | 233 | 0.0 | 0.0 | 0.43 | 1.30 | 1.30 | 99 | 1008.6 |
| 20260507014132 | 11 | 182 | 8.0 | 9.7 | 0.30 | 1.24 | 1.24 | 99 | 1008.7 |
| 20260507013629 | 11 | 167 | 8.0 | 9.7 | 0.36 | 1.22 | 1.22 | 99 | 1008.7 |
| 20260507013126 | 11 | 200 | 8.0 | 11.3 | 0.48 | 1.19 | 1.19 | 99 | 1008.5 |
| 20260507012624 | 11 | 212 | 8.0 | 9.7 | 0.61 | 1.17 | 1.17 | 99 | 1008.9 |
| 20260507012119 | 11 | 135 | 1.6 | 1.6 | 0.61 | 1.12 | 1.12 | 99 | 1008.9 |
| 20260507011617 | 11 | 184 | 14.5 | 16.1 | 0.43 | 1.07 | 1.07 | 99 | 1009.0 |
| 20260507011113 | 11 | 136 | 14.5 | 17.7 | 0.30 | 1.02 | 1.02 | 99 | 1009.1 |
| 20260507010608 | 11 | 245 | 0.0 | 0.0 | 0.48 | 0.99 | 0.99 | 99 | 1009.0 |
| 20260507010104 | 11 | 188 | 9.7 | 11.3 | 0.61 | 0.97 | 0.97 | 99 | 1009.0 |
| 20260507005602 | 11 | 230 | 4.8 | 4.8 | 0.61 | 0.91 | 0.91 | 99 | 1009.1 |
| 20260507005058 | 11 | 211 | 9.7 | 12.9 | 0.79 | 0.86 | 0.86 | 99 | 1009.2 |
| 20260507004555 | 11 | 217 | 8.0 | 12.9 | 0.79 | 0.81 | 0.81 | 99 | 1009.5 |
| 20260507004052 | 11 | 128 | 8.0 | 11.3 | 0.61 | 0.74 | 0.74 | 99 | 1009.7 |
| 20260507003548 | 11 | 270 | 6.4 | 12.9 | 0.61 | 0.69 | 0.69 | 99 | 1009.6 |
| 20260507003043 | 11 | 282 | 1.6 | 1.6 | 0.61 | 0.64 | 0.64 | 99 | 1009.5 |
| 20260507002540 | 11 | 222 | 9.7 | 12.9 | 0.48 | 0.58 | 0.58 | 99 | 1009.8 |
| 20260507002036 | 11 | 163 | 1.6 | 4.8 | 0.30 | 0.53 | 0.53 | 99 | 1009.7 |
| 20260507001533 | 11 | 222 | 8.0 | 9.7 | 0.30 | 0.51 | 0.51 | 99 | 1009.9 |
| 20260507001031 | 11 | 173 | 9.7 | 9.7 | 0.79 | 0.48 | 0.48 | 99 | 1010.2 |
| 20260507000526 | 11 | 208 | 6.4 | 11.3 | 0.71 | 0.46 | 0.46 | 99 | 1010.0 |
| 20260507000023 | 11 | 208 | 3.2 | 3.2 | 0.30 | 0.36 | 0.36 | 99 | 1010.1 |
| 20260506235520 | 11 | 135 | 6.4 | 9.7 | 0.18 | 0.33 | 0.33 | 99 | 1010.1 |
| 20260506235015 | 11 | 216 | 1.6 | 3.2 | 0.30 | 0.30 | 0.30 | 99 | 1009.9 |
| 20260506234513 | 11 | 164 | 4.8 | 8.0 | 0.48 | 0.30 | 0.30 | 99 | 1010.0 |
| 20260506234010 | 11 | 178 | 0.0 | 0.0 | 0.18 | 0.25 | 0.25 | 99 | 1010.1 |
| 20260506233506 | 11 | 238 | 0.0 | 0.0 | 0.13 | 0.23 | 0.23 | 99 | 1009.9 |
| 20260506233003 | 11 | 196 | 3.2 | 3.2 | 0.13 | 0.23 | 0.23 | 99 | 1010.1 |
| 20260506232459 | 11 | 212 | 4.8 | 4.8 | 0.18 | 0.20 | 0.20 | 99 | 1010.4 |
| 20260506231955 | 11 | 200 | 4.8 | 8.0 | 0.18 | 0.20 | 0.20 | 99 | 1010.5 |
| 20260506231453 | 11 | 324 | 4.8 | 4.8 | 0.00 | 0.18 | 0.18 | 99 | 1009.8 |
| 20260506230950 | 11 | 213 | 4.8 | 8.0 | 0.00 | 0.18 | 0.18 | 99 | 1009.9 |
| 20260506230446 | 11 | 188 | 4.8 | 4.8 | 0.00 | 0.18 | 0.18 | 99 | 1010.0 |
| 20260506225943 | 11 | 205 | 8.0 | 11.3 | 0.13 | 0.18 | 0.18 | 99 | 1010.2 |
| 20260506225441 | 11 | 204 | 4.8 | 8.0 | 0.13 | 0.18 | 0.18 | 99 | 1010.5 |
| 20260506224937 | 11 | 158 | 9.7 | 14.5 | 0.18 | 0.15 | 0.15 | 99 | 1010.3 |
| 20260506224434 | 11 | 176 | 8.0 | 11.3 | 0.18 | 0.15 | 0.15 | 99 | 1010.6 |
| 20260506223931 | 11 | 149 | 4.8 | 8.0 | 0.13 | 0.13 | 0.13 | 99 | 1010.1 |
| 20260506223426 | 11 | 201 | 8.0 | 9.7 | 0.13 | 0.13 | 0.13 | 99 | 1010.5 |
| 20260506222924 | 11 | 154 | 11.3 | 12.9 | 0.18 | 0.10 | 0.10 | 99 | 1010.7 |
| 20260506222420 | 11 | 117 | 4.8 | 4.8 | 0.30 | 0.10 | 0.10 | 99 | 1010.7 |
| 20260506221917 | 11 | 190 | 4.8 | 4.8 | 0.13 | 0.08 | 0.08 | 99 | 1010.9 |
| 20260506221414 | 11 | 171 | 9.7 | 14.5 | 0.18 | 0.05 | 0.05 | 99 | 1011.0 |
| 20260506220912 | 11 | 248 | 11.3 | 12.9 | 0.18 | 0.05 | 0.05 | 99 | 1011.1 |
| 20260506220407 | 11 | 181 | 4.8 | 8.0 | 0.00 | 0.03 | 0.03 | 99 | 1011.5 |
| 20260506215904 | 11 | 225 | 3.2 | 3.2 | 0.13 | 0.03 | 0.03 | 99 | 1011.3 |
| 20260506215400 | 11 | 274 | 4.8 | 8.0 | 0.13 | 0.03 | 0.03 | 99 | 1011.4 |
| 20260506214856 | 11 | 120 | 4.8 | 9.7 | 0.00 | 0.00 | 0.00 | 99 | 1011.0 |
| 20260506214353 | 11 | 163 | 4.8 | 8.0 | 0.00 | 0.00 | 0.00 | 99 | 1011.5 |
| 20260506213851 | 11 | 238 | 4.8 | 4.8 | 0.00 | 0.00 | 0.00 | 99 | 1011.5 |
| 20260506213348 | 11 | 210 | 8.0 | 12.9 | 0.00 | 0.00 | 0.00 | 99 | 1011.3 |
| 20260506212845 | 11 | 193 | 12.9 | 14.5 | 0.00 | 0.00 | 0.00 | 99 | 1011.2 |
| 20260506212341 | 11 | 186 | 4.8 | 8.0 | 0.00 | 0.00 | 0.00 | 99 | 1011.3 |
| 20260506211836 | 11 | 166 | 8.0 | 11.3 | 0.00 | 0.00 | 0.00 | 98 | 1011.3 |
| 20260506211332 | 11 | 211 | 9.7 | 11.3 | 0.00 | 0.00 | 0.00 | 97 | 1011.5 |
| 20260506210830 | 11 | 284 | 6.4 | 9.7 | 0.00 | 0.00 | 0.00 | 97 | 1011.6 |
| 20260506210327 | 11 | 132 | 3.2 | 4.8 | 0.00 | 0.00 | 0.00 | 97 | 1011.5 |
| 20260506205824 | 11 | 249 | 8.0 | 11.3 | 0.00 | 0.00 | 0.00 | 97 | 1011.5 |
| 20260506205320 | 12 | 245 | 8.0 | 11.3 | 0.00 | 0.00 | 0.00 | 96 | 1011.7 |
| 20260506204817 | 12 | 337 | 4.8 | 8.0 | 0.00 | 0.00 | 0.00 | 96 | 1011.5 |
| 20260506204314 | 12 | 199 | 4.8 | 9.7 | 0.00 | 0.00 | 0.00 | 96 | 1011.1 |
| 20260506203812 | 12 | 244 | 6.4 | 9.7 | 0.00 | 0.00 | 0.00 | 95 | 1011.7 |
| 20260506203309 | 12 | 221 | 9.7 | 14.5 | 0.00 | 0.00 | 0.00 | 95 | 1011.8 |
| 20260506202806 | 12 | 310 | 6.4 | 8.0 | 0.00 | 0.00 | 0.00 | 95 | 1011.2 |
| 20260506202306 | 12 | 156 | 6.4 | 8.0 | 0.00 | 0.00 | 0.00 | 95 | 1011.1 |
| 20260506201759 | 12 | 177 | 8.0 | 12.9 | 0.00 | 0.00 | 0.00 | 94 | 1011.5 |
| 20260506201256 | 12 | 89 | 3.2 | 4.8 | 0.00 | 0.00 | 0.00 | 94 | 1011.1 |
| 20260506200753 | 12 | 94 | 8.0 | 9.7 | 0.00 | 0.00 | 0.00 | 94 | 1010.7 |
| 20260506200249 | 12 | 89 | 11.3 | 14.5 | 0.00 | 0.00 | 0.00 | 94 | 1010.8 |
| 20260506195746 | 12 | 142 | 6.4 | 8.0 | 0.00 | 0.00 | 0.00 | 94 | 1011.1 |
| 20260506195242 | 12 | 154 | 6.4 | 8.0 | 0.00 | 0.00 | 0.00 | 94 | 1011.0 |
| 20260506194740 | 12 | 152 | 8.0 | 12.9 | 0.00 | 0.00 | 0.00 | 94 | 1011.4 |
| 20260506194236 | 12 | 47 | 9.7 | 14.5 | 0.00 | 0.00 | 0.00 | 94 | 1011.6 |
| 20260506193734 | 12 | 194 | 6.4 | 11.3 | 0.00 | 0.00 | 0.00 | 94 | 1011.2 |
| 20260506193230 | 12 | 312 | 3.2 | 3.2 | 0.00 | 0.00 | 0.00 | 94 | 1011.3 |
| 20260506192727 | 12 | 190 | 6.4 | 9.7 | 0.00 | 0.00 | 0.00 | 93 | 1011.4 |
| 20260506192224 | 12 | 203 | 16.1 | 24.1 | 0.00 | 0.00 | 0.00 | 93 | 1011.6 |
| 20260506191720 | 13 | 165 | 6.4 | 11.3 | 0.00 | 0.00 | 0.00 | 93 | 1011.7 |
| 20260506191216 | 12 | 319 | 3.2 | 4.8 | 0.00 | 0.00 | 0.00 | 93 | 1011.6 |
| 20260506190714 | 12 | 163 | 6.4 | 12.9 | 0.00 | 0.00 | 0.00 | 93 | 1011.6 |
| 20260506190210 | 12 | 259 | 4.8 | 4.8 | 0.00 | 0.00 | 0.00 | 94 | 1011.6 |
| 20260506185708 | 12 | 192 | 6.4 | 9.7 | 0.00 | 0.00 | 0.00 | 94 | 1012.1 |
| 20260506185204 | 12 | 192 | 9.7 | 11.3 | 0.00 | 0.00 | 0.00 | 94 | 1011.7 |
| 20260506184702 | 12 | 237 | 8.0 | 11.3 | 0.00 | 0.00 | 0.00 | 94 | 1011.6 |
| 20260506184159 | 12 | 191 | 8.0 | 11.3 | 0.00 | 0.00 | 0.00 | 94 | 1012.0 |
| 20260506183655 | 12 | 101 | 8.0 | 11.3 | 0.00 | 0.00 | 0.00 | 94 | 1011.9 |
| 20260506183151 | 12 | 238 | 4.8 | 8.0 | 0.00 | 0.00 | 0.00 | 95 | 1011.8 |
| 20260506182649 | 12 | 234 | 4.8 | 8.0 | 0.00 | 0.00 | 0.00 | 95 | 1011.9 |
| 20260506182146 | 12 | 91 | 8.0 | 12.9 | 0.00 | 0.00 | 0.00 | 95 | 1012.0 |
| 20260506181644 | 12 | 197 | 3.2 | 3.2 | 0.00 | 0.00 | 0.00 | 95 | 1012.1 |
| 20260506181140 | 12 | 283 | 1.6 | 1.6 | 0.00 | 0.00 | 0.00 | 95 | 1012.0 |
| 20260506180638 | 12 | 205 | 8.0 | 12.9 | 0.00 | 0.00 | 0.00 | 95 | 1012.4 |
| 20260506180134 | 12 | 146 | 12.9 | 17.7 | 0.00 | 0.00 | 0.00 | 95 | 1012.3 |
| 20260506175630 | 12 | 211 | 11.3 | 14.5 | 0.00 | 0.00 | 0.00 | 95 | 1012.4 |
| 20260506175126 | 12 | 237 | 9.7 | 11.3 | 0.00 | 0.00 | 0.00 | 95 | 1012.2 |
| 20260506174625 | 12 | 184 | 12.9 | 16.1 | 0.00 | 0.00 | 0.00 | 95 | 1012.2 |
| 20260506174122 | 12 | 133 | 3.2 | 3.2 | 0.00 | 0.00 | 0.00 | 95 | 1012.4 |
| 20260506173619 | 12 | 239 | 12.9 | 16.1 | 0.00 | 0.00 | 0.00 | 95 | 1012.7 |
| 20260506173116 | 12 | 191 | 3.2 | 9.7 | 0.00 | 0.00 | 0.00 | 95 | 1012.6 |
| 20260506172613 | 12 | 218 | 11.3 | 12.9 | 0.00 | 0.00 | 0.00 | 94 | 1012.6 |
| 20260506172109 | 12 | 226 | 9.7 | 11.3 | 0.00 | 0.00 | 0.00 | 94 | 1012.6 |
| 20260506171607 | 12 | 228 | 4.8 | 8.0 | 0.00 | 0.00 | 0.00 | 94 | 1012.7 |
| 20260506171104 | 12 | 265 | 11.3 | 14.5 | 0.00 | 0.00 | 0.00 | 94 | 1012.8 |
| 20260506170601 | 12 | 181 | 4.8 | 9.7 | 0.00 | 0.00 | 0.00 | 94 | 1012.7 |
| 20260506170059 | 12 | 234 | 6.4 | 11.3 | 0.00 | 0.00 | 0.00 | 94 | 1012.8 |
| 20260506165557 | 12 | 187 | 8.0 | 11.3 | 0.00 | 0.00 | 0.00 | 93 | 1012.7 |
| 20260506165053 | 12 | 146 | 6.4 | 9.7 | 0.00 | 0.00 | 0.00 | 93 | 1013.2 |
| 20260506164551 | 13 | 220 | 4.8 | 8.0 | 0.00 | 0.00 | 0.00 | 93 | 1012.9 |
| 20260506164048 | 13 | 233 | 8.0 | 12.9 | 0.00 | 0.00 | 0.00 | 93 | 1013.1 |
| 20260506163543 | 12 | 164 | 9.7 | 14.5 | 0.00 | 0.00 | 0.00 | 93 | 1013.3 |
| 20260506163039 | 12 | 226 | 11.3 | 12.9 | 0.00 | 0.00 | 0.00 | 93 | 1013.2 |
| 20260506162536 | 13 | 82 | 8.0 | 9.7 | 0.00 | 0.00 | 0.00 | 93 | 1013.2 |
| 20260506162033 | 12 | 187 | 12.9 | 17.7 | 0.00 | 0.00 | 0.00 | 93 | 1013.3 |
| 20260506161531 | 13 | 194 | 11.3 | 14.5 | 0.00 | 0.00 | 0.00 | 93 | 1013.1 |
| 20260506161027 | 13 | 193 | 6.4 | 9.7 | 0.00 | 0.00 | 0.00 | 93 | 1013.1 |
| 20260506160525 | 13 | 221 | 8.0 | 11.3 | 0.00 | 0.00 | 0.00 | 94 | 1013.4 |
| 20260506160022 | 13 | 317 | 11.3 | 17.7 | 0.00 | 0.00 | 0.00 | 93 | 1013.2 |